sensor_id;sensor_type;location;lat;lon;timestamp;pressure;altitude;pressure_sealevel;temperature;humidity
52685;BME280;43757;46.052;13.614;2022-10-17T18:34:06;98983.56;;;19.58;90.33
52685;BME280;43757;46.052;13.614;2022-10-17T18:36:33;98991.84;;;19.61;90.21
52685;BME280;43757;46.052;13.614;2022-10-17T18:39:13;98989.94;;;19.75;90.24
52685;BME280;43757;46.052;13.614;2022-10-17T18:41:38;98991.03;;;19.61;90.36
52685;BME280;43757;46.052;13.614;2022-10-17T18:44:04;98991.25;;;19.59;89.99
52685;BME280;43757;46.052;13.614;2022-10-17T18:46:34;98988.63;;;19.59;89.19
52685;BME280;43757;46.052;13.614;2022-10-17T18:49:05;98993.50;;;19.49;89.24
52685;BME280;43757;46.052;13.614;2022-10-17T18:51:31;98998.81;;;19.42;89.56
52685;BME280;43757;46.052;13.614;2022-10-17T18:53:57;98992.91;;;19.47;89.44
52685;BME280;43757;46.052;13.614;2022-10-17T18:56:27;98994.31;;;19.50;88.48
52685;BME280;43757;46.052;13.614;2022-10-17T18:58:53;98992.53;;;19.43;89.28
52685;BME280;43757;46.052;13.614;2022-10-17T19:01:22;98995.16;;;19.43;88.72
52685;BME280;43757;46.052;13.614;2022-10-17T19:03:49;98994.16;;;19.44;87.91
52685;BME280;43757;46.052;13.614;2022-10-17T19:06:17;98995.97;;;19.44;88.02
52685;BME280;43757;46.052;13.614;2022-10-17T19:08:44;98994.34;;;19.43;88.16
52685;BME280;43757;46.052;13.614;2022-10-17T19:11:13;98993.75;;;19.41;88.19
52685;BME280;43757;46.052;13.614;2022-10-17T19:13:40;98991.72;;;19.43;88.60
52685;BME280;43757;46.052;13.614;2022-10-17T19:16:11;98988.09;;;19.37;89.04
52685;BME280;43757;46.052;13.614;2022-10-17T19:18:37;98988.91;;;19.38;88.89
52685;BME280;43757;46.052;13.614;2022-10-17T19:21:04;98985.25;;;19.39;88.66
52685;BME280;43757;46.052;13.614;2022-10-17T19:23:30;98984.44;;;19.38;88.47
52685;BME280;43757;46.052;13.614;2022-10-17T19:26:03;98976.97;;;19.35;88.59
52685;BME280;43757;46.052;13.614;2022-10-17T19:28:30;98981.13;;;19.50;88.04
52685;BME280;43757;46.052;13.614;2022-10-17T19:30:55;98981.16;;;19.43;88.44
52685;BME280;43757;46.052;13.614;2022-10-17T19:33:21;98987.47;;;19.42;89.26
52685;BME280;43757;46.052;13.614;2022-10-17T19:35:57;98989.69;;;19.45;89.22
52685;BME280;43757;46.052;13.614;2022-10-17T19:38:23;98987.25;;;19.43;88.79
52685;BME280;43757;46.052;13.614;2022-10-17T19:40:48;98987.84;;;19.45;88.71
52685;BME280;43757;46.052;13.614;2022-10-17T19:43:14;98983.59;;;19.44;88.92
52685;BME280;43757;46.052;13.614;2022-10-17T19:45:40;98979.56;;;19.42;89.02
52685;BME280;43757;46.052;13.614;2022-10-17T19:48:05;98983.22;;;19.41;88.99
52685;BME280;43757;46.052;13.614;2022-10-17T19:50:31;98980.38;;;19.42;88.96
52685;BME280;43757;46.052;13.614;2022-10-17T19:52:56;98978.75;;;19.41;89.54
52685;BME280;43757;46.052;13.614;2022-10-17T19:55:22;98975.69;;;19.44;89.34
52685;BME280;43757;46.052;13.614;2022-10-17T19:57:47;98969.41;;;19.45;88.95
52685;BME280;43757;46.052;13.614;2022-10-17T20:00:13;98964.53;;;19.42;89.13
52685;BME280;43757;46.052;13.614;2022-10-17T20:02:39;98972.47;;;19.42;89.28
52685;BME280;43757;46.052;13.614;2022-10-17T20:05:05;98976.72;;;19.43;89.04
52685;BME280;43757;46.052;13.614;2022-10-17T20:07:40;98969.41;;;19.45;88.96
52685;BME280;43757;46.052;13.614;2022-10-17T20:10:06;98966.13;;;19.50;88.63
52685;BME280;43757;46.052;13.614;2022-10-17T20:12:32;98964.94;;;19.46;88.75
52685;BME280;43757;46.052;13.614;2022-10-17T20:14:58;98970.84;;;19.41;89.20
52685;BME280;43757;46.052;13.614;2022-10-17T20:17:24;98975.09;;;19.42;88.92
52685;BME280;43757;46.052;13.614;2022-10-17T20:19:49;98974.88;;;19.44;88.97
52685;BME280;43757;46.052;13.614;2022-10-17T20:22:15;98970.03;;;19.41;89.15
52685;BME280;43757;46.052;13.614;2022-10-17T20:24:41;98975.09;;;19.42;89.06
52685;BME280;43757;46.052;13.614;2022-10-17T20:27:07;98967.78;;;19.44;88.84
52685;BME280;43757;46.052;13.614;2022-10-17T20:29:32;98971.44;;;19.43;88.85
52685;BME280;43757;46.052;13.614;2022-10-17T20:31:58;98966.97;;;19.44;88.74
52685;BME280;43757;46.052;13.614;2022-10-17T20:34:23;98965.16;;;19.44;88.72
52685;BME280;43757;46.052;13.614;2022-10-17T20:36:49;98964.34;;;19.44;88.89
52685;BME280;43757;46.052;13.614;2022-10-17T20:39:16;98962.72;;;19.43;89.15
52685;BME280;43757;46.052;13.614;2022-10-17T20:41:42;98976.72;;;19.43;89.03
52685;BME280;43757;46.052;13.614;2022-10-17T20:44:09;98976.53;;;19.38;89.62
52685;BME280;43757;46.052;13.614;2022-10-17T20:46:36;98972.09;;;19.32;89.72
52685;BME280;43757;46.052;13.614;2022-10-17T20:49:03;98969.91;;;19.29;89.53
52685;BME280;43757;46.052;13.614;2022-10-17T20:51:30;98972.75;;;19.28;89.02
52685;BME280;43757;46.052;13.614;2022-10-17T20:53:55;98972.75;;;19.28;88.14
52685;BME280;43757;46.052;13.614;2022-10-17T20:56:26;98968.06;;;19.30;87.55
52685;BME280;43757;46.052;13.614;2022-10-17T20:58:58;98980.81;;;19.33;86.65
52685;BME280;43757;46.052;13.614;2022-10-17T21:01:25;98970.50;;;19.31;86.50
52685;BME280;43757;46.052;13.614;2022-10-17T21:03:51;98965.81;;;19.33;86.45
52685;BME280;43757;46.052;13.614;2022-10-17T21:06:17;98972.09;;;19.32;86.97
52685;BME280;43757;46.052;13.614;2022-10-17T21:08:44;98963.56;;;19.37;86.56
52685;BME280;43757;46.052;13.614;2022-10-17T21:11:15;98962.75;;;19.36;86.66
52685;BME280;43757;46.052;13.614;2022-10-17T21:13:41;98967.00;;;19.37;86.78
52685;BME280;43757;46.052;13.614;2022-10-17T21:16:12;98949.97;;;19.40;86.76
52685;BME280;43757;46.052;13.614;2022-10-17T21:18:39;98962.75;;;19.36;86.97
52685;BME280;43757;46.052;13.614;2022-10-17T21:21:13;98953.63;;;19.39;86.94
52685;BME280;43757;46.052;13.614;2022-10-17T21:23:41;98961.09;;;19.42;86.54
52685;BME280;43757;46.052;13.614;2022-10-17T21:26:08;98966.19;;;19.37;86.91
52685;BME280;43757;46.052;13.614;2022-10-17T21:28:36;98958.50;;;19.35;87.04
52685;BME280;43757;46.052;13.614;2022-10-17T21:31:12;98961.16;;;19.35;87.49
52685;BME280;43757;46.052;13.614;2022-10-17T21:33:40;98948.19;;;19.34;87.60
52685;BME280;43757;46.052;13.614;2022-10-17T21:36:06;98955.66;;;19.37;87.45
52685;BME280;43757;46.052;13.614;2022-10-17T21:38:36;98963.34;;;19.38;87.58
52685;BME280;43757;46.052;13.614;2022-10-17T21:41:04;98954.03;;;19.36;87.53
52685;BME280;43757;46.052;13.614;2022-10-17T21:43:31;98953.22;;;19.35;87.51
52685;BME280;43757;46.052;13.614;2022-10-17T21:46:04;98952.81;;;19.38;87.60
52685;BME280;43757;46.052;13.614;2022-10-17T21:48:30;98958.50;;;19.35;87.59
52685;BME280;43757;46.052;13.614;2022-10-17T21:51:01;98960.53;;;19.33;87.86
52685;BME280;43757;46.052;13.614;2022-10-17T21:53:27;98948.97;;;19.34;87.65
52685;BME280;43757;46.052;13.614;2022-10-17T21:55:52;98954.03;;;19.36;87.59
52685;BME280;43757;46.052;13.614;2022-10-17T21:58:19;98949.59;;;19.36;87.87
52685;BME280;43757;46.052;13.614;2022-10-17T22:00:45;98947.97;;;19.35;87.87
52685;BME280;43757;46.052;13.614;2022-10-17T22:03:11;98945.53;;;19.34;87.89
52685;BME280;43757;46.052;13.614;2022-10-17T22:05:39;98947.97;;;19.35;87.89
52685;BME280;43757;46.052;13.614;2022-10-17T22:08:05;98941.88;;;19.35;88.24
52685;BME280;43757;46.052;13.614;2022-10-17T22:10:34;98947.16;;;19.35;87.95
52685;BME280;43757;46.052;13.614;2022-10-17T22:13:00;98939.84;;;19.37;88.04
52685;BME280;43757;46.052;13.614;2022-10-17T22:15:25;98944.31;;;19.36;87.91
52685;BME280;43757;46.052;13.614;2022-10-17T22:17:51;98944.91;;;19.38;87.95
52685;BME280;43757;46.052;13.614;2022-10-17T22:20:17;98942.47;;;19.37;87.97
52685;BME280;43757;46.052;13.614;2022-10-17T22:22:42;98942.06;;;19.40;87.94
52685;BME280;43757;46.052;13.614;2022-10-17T22:25:08;98936.19;;;19.38;87.88
52685;BME280;43757;46.052;13.614;2022-10-17T22:27:34;98931.31;;;19.41;88.38
52685;BME280;43757;46.052;13.614;2022-10-17T22:29:59;98938.22;;;19.36;88.87
52685;BME280;43757;46.052;13.614;2022-10-17T22:32:25;98939.66;;;19.32;87.20
52685;BME280;43757;46.052;13.614;2022-10-17T22:34:51;98940.09;;;19.29;84.21
52685;BME280;43757;46.052;13.614;2022-10-17T22:37:16;98938.69;;;19.26;84.90
52685;BME280;43757;46.052;13.614;2022-10-17T22:39:42;98944.00;;;19.20;81.81
52685;BME280;43757;46.052;13.614;2022-10-17T22:42:07;98941.38;;;19.20;82.86
52685;BME280;43757;46.052;13.614;2022-10-17T22:44:33;98948.06;;;19.16;83.17
52685;BME280;43757;46.052;13.614;2022-10-17T22:46:58;98945.03;;;19.19;84.41
52685;BME280;43757;46.052;13.614;2022-10-17T22:49:24;98944.41;;;19.17;83.19
52685;BME280;43757;46.052;13.614;2022-10-17T22:51:49;98943.97;;;19.26;85.22
52685;BME280;43757;46.052;13.614;2022-10-17T22:54:15;98942.72;;;19.29;85.38
52685;BME280;43757;46.052;13.614;2022-10-17T22:56:40;98951.22;;;19.31;84.93
52685;BME280;43757;46.052;13.614;2022-10-17T22:59:06;98954.09;;;19.29;85.16
52685;BME280;43757;46.052;13.614;2022-10-17T23:01:31;98940.91;;;19.29;84.81
52685;BME280;43757;46.052;13.614;2022-10-17T23:03:57;98949.81;;;19.28;85.07
52685;BME280;43757;46.052;13.614;2022-10-17T23:06:23;98947.41;;;19.27;84.93
52685;BME280;43757;46.052;13.614;2022-10-17T23:08:48;98953.47;;;19.27;84.75
52685;BME280;43757;46.052;13.614;2022-10-17T23:11:14;98958.75;;;19.27;84.64
52685;BME280;43757;46.052;13.614;2022-10-17T23:13:40;98956.13;;;19.27;84.65
52685;BME280;43757;46.052;13.614;2022-10-17T23:16:07;98952.69;;;19.27;84.61
52685;BME280;43757;46.052;13.614;2022-10-17T23:18:32;98958.97;;;19.26;84.66
52685;BME280;43757;46.052;13.614;2022-10-17T23:20:58;98944.38;;;19.23;84.58
52685;BME280;43757;46.052;13.614;2022-10-17T23:23:24;98952.28;;;19.23;84.73
52685;BME280;43757;46.052;13.614;2022-10-17T23:25:49;98945.41;;;19.22;84.45
52685;BME280;43757;46.052;13.614;2022-10-17T23:28:16;98935.88;;;19.21;84.47
52685;BME280;43757;46.052;13.614;2022-10-17T23:30:41;98942.16;;;19.20;84.85
52685;BME280;43757;46.052;13.614;2022-10-17T23:33:09;98944.81;;;19.20;84.26
52685;BME280;43757;46.052;13.614;2022-10-17T23:35:35;98943.78;;;19.21;84.30
52685;BME280;43757;46.052;13.614;2022-10-17T23:38:01;98944.81;;;19.20;82.46
52685;BME280;43757;46.052;13.614;2022-10-17T23:40:28;98942.00;;;19.15;83.17
52685;BME280;43757;46.052;13.614;2022-10-17T23:42:53;98940.16;;;19.16;83.26
52685;BME280;43757;46.052;13.614;2022-10-17T23:45:19;98936.31;;;19.18;84.24
52685;BME280;43757;46.052;13.614;2022-10-17T23:47:45;98936.31;;;19.18;84.03
52685;BME280;43757;46.052;13.614;2022-10-17T23:50:10;98927.38;;;19.19;84.16
52685;BME280;43757;46.052;13.614;2022-10-17T23:52:36;98922.91;;;19.20;83.79
52685;BME280;43757;46.052;13.614;2022-10-17T23:55:01;98924.53;;;19.21;83.77
52685;BME280;43757;46.052;13.614;2022-10-17T23:57:27;98918.44;;;19.20;83.56
52685;BME280;43757;46.052;13.614;2022-10-17T23:59:52;98916.63;;;19.21;83.54
